sensor_id;sensor_type;location;lat;lon;timestamp;pressure;altitude;pressure_sealevel;temperature;humidity
78613;BME280;67933;51.060;3.638;2024-03-08T00:00:14;101594.72;;;4.13;100.00
78613;BME280;67933;51.060;3.638;2024-03-08T00:02:40;101585.22;;;4.06;100.00
78613;BME280;67933;51.060;3.638;2024-03-08T00:05:07;101586.94;;;4.09;100.00
78613;BME280;67933;51.060;3.638;2024-03-08T00:07:36;101590.47;;;4.06;100.00
78613;BME280;67933;51.060;3.638;2024-03-08T00:10:05;101591.38;;;4.05;100.00
78613;BME280;67933;51.060;3.638;2024-03-08T00:12:45;101583.59;;;4.01;100.00
78613;BME280;67933;51.060;3.638;2024-03-08T00:15:12;101579.13;;;4.04;100.00
78613;BME280;67933;51.060;3.638;2024-03-08T00:17:43;101584.38;;;4.04;100.00
78613;BME280;67933;51.060;3.638;2024-03-08T00:20:09;101573.13;;;3.98;100.00
78613;BME280;67933;51.060;3.638;2024-03-08T00:22:35;101574.88;;;3.97;100.00
78613;BME280;67933;51.060;3.638;2024-03-08T00:25:01;101579.41;;;3.89;100.00
78613;BME280;67933;51.060;3.638;2024-03-08T00:27:27;101583.72;;;3.95;100.00
78613;BME280;67933;51.060;3.638;2024-03-08T00:29:54;101582.03;;;3.91;100.00
78613;BME280;67933;51.060;3.638;2024-03-08T00:32:19;101578.38;;;3.98;100.00
78613;BME280;67933;51.060;3.638;2024-03-08T00:34:44;101571.41;;;3.95;100.00
78613;BME280;67933;51.060;3.638;2024-03-08T00:37:10;101568.06;;;3.88;100.00
78613;BME280;67933;51.060;3.638;2024-03-08T00:39:35;101570.78;;;3.82;100.00
78613;BME280;67933;51.060;3.638;2024-03-08T00:42:00;101570.84;;;3.79;100.00
78613;BME280;67933;51.060;3.638;2024-03-08T00:44:26;101558.53;;;3.83;100.00
78613;BME280;67933;51.060;3.638;2024-03-08T00:46:51;101556.75;;;3.85;100.00
78613;BME280;67933;51.060;3.638;2024-03-08T00:49:18;101551.50;;;3.85;100.00
78613;BME280;67933;51.060;3.638;2024-03-08T00:51:43;101556.81;;;3.80;100.00
78613;BME280;67933;51.060;3.638;2024-03-08T00:54:09;101558.66;;;3.77;100.00
78613;BME280;67933;51.060;3.638;2024-03-08T00:56:34;101557.94;;;3.67;100.00
78613;BME280;67933;51.060;3.638;2024-03-08T00:59:01;101555.47;;;3.60;100.00
78613;BME280;67933;51.060;3.638;2024-03-08T01:01:28;101550.34;;;3.54;100.00
78613;BME280;67933;51.060;3.638;2024-03-08T01:03:53;101539.81;;;3.55;100.00
78613;BME280;67933;51.060;3.638;2024-03-08T01:06:19;101544.13;;;3.58;100.00
78613;BME280;67933;51.060;3.638;2024-03-08T01:08:45;101540.72;;;3.54;100.00
78613;BME280;67933;51.060;3.638;2024-03-08T01:11:13;101542.50;;;3.51;100.00
78613;BME280;67933;51.060;3.638;2024-03-08T01:13:39;101534.75;;;3.44;100.00
78613;BME280;67933;51.060;3.638;2024-03-08T01:16:04;101520.78;;;3.42;100.00
78613;BME280;67933;51.060;3.638;2024-03-08T01:18:30;101536.53;;;3.42;100.00
78613;BME280;67933;51.060;3.638;2024-03-08T01:20:55;101525.91;;;3.48;100.00
78613;BME280;67933;51.060;3.638;2024-03-08T01:23:21;101534.75;;;3.44;100.00
78613;BME280;67933;51.060;3.638;2024-03-08T01:25:46;101525.03;;;3.49;100.00
78613;BME280;67933;51.060;3.638;2024-03-08T01:28:14;101526.88;;;3.46;100.00
78613;BME280;67933;51.060;3.638;2024-03-08T01:30:39;101524.38;;;3.38;100.00
78613;BME280;67933;51.060;3.638;2024-03-08T01:33:05;101521.69;;;3.41;100.00
78613;BME280;67933;51.060;3.638;2024-03-08T01:35:31;101513.78;;;3.44;100.00
78613;BME280;67933;51.060;3.638;2024-03-08T01:37:56;101506.88;;;3.40;100.00
78613;BME280;67933;51.060;3.638;2024-03-08T01:40:21;101508.63;;;3.40;100.00
78613;BME280;67933;51.060;3.638;2024-03-08T01:42:47;101510.41;;;3.38;100.00
78613;BME280;67933;51.060;3.638;2024-03-08T01:45:13;101505.00;;;3.45;100.00
78613;BME280;67933;51.060;3.638;2024-03-08T01:47:39;101501.66;;;3.37;100.00
78613;BME280;67933;51.060;3.638;2024-03-08T01:50:05;101505.16;;;3.38;100.00
78613;BME280;67933;51.060;3.638;2024-03-08T01:52:34;101499.16;;;3.31;100.00
78613;BME280;67933;51.060;3.638;2024-03-08T01:55:02;101497.44;;;3.29;100.00
78613;BME280;67933;51.060;3.638;2024-03-08T01:57:34;101480.88;;;3.25;100.00
78613;BME280;67933;51.060;3.638;2024-03-08T02:00:01;101488.72;;;3.27;100.00
78613;BME280;67933;51.060;3.638;2024-03-08T02:02:33;101487.94;;;3.23;100.00
78613;BME280;67933;51.060;3.638;2024-03-08T02:05:00;101486.22;;;3.19;100.00
78613;BME280;67933;51.060;3.638;2024-03-08T02:07:26;101481.00;;;3.19;100.00
78613;BME280;67933;51.060;3.638;2024-03-08T02:09:51;101485.31;;;3.22;100.00
78613;BME280;67933;51.060;3.638;2024-03-08T02:12:17;101486.19;;;3.22;100.00
78613;BME280;67933;51.060;3.638;2024-03-08T02:14:42;101473.00;;;3.25;100.00
78613;BME280;67933;51.060;3.638;2024-03-08T02:17:09;101460.91;;;3.18;100.00
78613;BME280;67933;51.060;3.638;2024-03-08T02:19:37;101465.34;;;3.16;100.00
78613;BME280;67933;51.060;3.638;2024-03-08T02:22:02;101461.00;;;3.14;100.00
78613;BME280;67933;51.060;3.638;2024-03-08T02:24:29;101454.88;;;3.13;100.00
78613;BME280;67933;51.060;3.638;2024-03-08T02:26:55;101448.00;;;3.09;100.00
78613;BME280;67933;51.060;3.638;2024-03-08T02:29:22;101449.69;;;3.10;100.00
78613;BME280;67933;51.060;3.638;2024-03-08T02:31:51;101435.81;;;3.05;100.00
78613;BME280;67933;51.060;3.638;2024-03-08T02:34:16;101435.88;;;3.02;100.00
78613;BME280;67933;51.060;3.638;2024-03-08T02:36:41;101438.56;;;2.97;100.00
78613;BME280;67933;51.060;3.638;2024-03-08T02:39:07;101430.63;;;3.02;100.00
78613;BME280;67933;51.060;3.638;2024-03-08T02:41:33;101436.78;;;2.99;100.00
78613;BME280;67933;51.060;3.638;2024-03-08T02:43:58;101429.03;;;2.93;100.00
78613;BME280;67933;51.060;3.638;2024-03-08T02:46:25;101421.13;;;2.95;100.00
78613;BME280;67933;51.060;3.638;2024-03-08T02:48:50;101425.56;;;2.93;100.00
78613;BME280;67933;51.060;3.638;2024-03-08T02:51:16;101416.94;;;2.86;100.00
78613;BME280;67933;51.060;3.638;2024-03-08T02:53:41;101419.50;;;2.88;100.00
78613;BME280;67933;51.060;3.638;2024-03-08T02:56:08;101413.34;;;2.90;100.00
78613;BME280;67933;51.060;3.638;2024-03-08T02:58:38;101410.84;;;2.84;100.00
78613;BME280;67933;51.060;3.638;2024-03-08T03:01:03;101406.47;;;2.85;100.00
78613;BME280;67933;51.060;3.638;2024-03-08T03:03:29;101403.88;;;2.83;100.00
78613;BME280;67933;51.060;3.638;2024-03-08T03:05:54;101403.13;;;2.77;100.00
78613;BME280;67933;51.060;3.638;2024-03-08T03:08:22;101402.28;;;2.73;100.00
78613;BME280;67933;51.060;3.638;2024-03-08T03:10:49;101397.91;;;2.74;100.00
78613;BME280;67933;51.060;3.638;2024-03-08T03:13:14;101403.16;;;2.74;100.00
78613;BME280;67933;51.060;3.638;2024-03-08T03:15:40;101391.88;;;2.70;100.00
78613;BME280;67933;51.060;3.638;2024-03-08T03:18:08;101388.44;;;2.66;100.00
78613;BME280;67933;51.060;3.638;2024-03-08T03:20:34;101387.53;;;2.67;100.00
78613;BME280;67933;51.060;3.638;2024-03-08T03:23:05;101385.84;;;2.63;100.00
78613;BME280;67933;51.060;3.638;2024-03-08T03:25:34;101377.22;;;2.58;100.00
78613;BME280;67933;51.060;3.638;2024-03-08T03:28:01;101371.94;;;2.61;100.00
78613;BME280;67933;51.060;3.638;2024-03-08T03:30:27;101378.94;;;2.59;100.00
78613;BME280;67933;51.060;3.638;2024-03-08T03:32:59;101377.22;;;2.58;100.00
78613;BME280;67933;51.060;3.638;2024-03-08T03:35:28;101379.06;;;2.53;100.00
78613;BME280;67933;51.060;3.638;2024-03-08T03:37:57;101365.13;;;2.50;100.00
78613;BME280;67933;51.060;3.638;2024-03-08T03:40:34;101371.22;;;2.50;100.00
78613;BME280;67933;51.060;3.638;2024-03-08T03:43:00;101373.06;;;2.45;100.00
78613;BME280;67933;51.060;3.638;2024-03-08T03:45:25;101370.31;;;2.54;100.00
78613;BME280;67933;51.060;3.638;2024-03-08T03:47:51;101362.38;;;2.59;100.00
78613;BME280;67933;51.060;3.638;2024-03-08T03:50:20;101365.06;;;2.54;100.00
78613;BME280;67933;51.060;3.638;2024-03-08T03:52:46;101355.53;;;2.50;100.00
78613;BME280;67933;51.060;3.638;2024-03-08T03:55:12;101349.50;;;2.47;100.00
78613;BME280;67933;51.060;3.638;2024-03-08T03:57:38;101340.81;;;2.43;100.00
78613;BME280;67933;51.060;3.638;2024-03-08T04:00:04;101348.75;;;2.39;100.00
78613;BME280;67933;51.060;3.638;2024-03-08T04:02:31;101343.47;;;2.40;100.00
78613;BME280;67933;51.060;3.638;2024-03-08T04:04:57;101349.53;;;2.42;100.00
78613;BME280;67933;51.060;3.638;2024-03-08T04:07:22;101344.31;;;2.41;100.00
78613;BME280;67933;51.060;3.638;2024-03-08T04:09:47;101333.84;;;2.42;100.00
78613;BME280;67933;51.060;3.638;2024-03-08T04:12:13;101335.59;;;2.40;100.00
78613;BME280;67933;51.060;3.638;2024-03-08T04:14:42;101337.44;;;2.35;100.00
78613;BME280;67933;51.060;3.638;2024-03-08T04:17:07;101329.69;;;2.29;100.00
78613;BME280;67933;51.060;3.638;2024-03-08T04:19:34;101333.22;;;2.26;100.00
78613;BME280;67933;51.060;3.638;2024-03-08T04:22:00;101328.84;;;2.27;100.00
78613;BME280;67933;51.060;3.638;2024-03-08T04:24:26;101331.34;;;2.35;100.00
78613;BME280;67933;51.060;3.638;2024-03-08T04:26:51;101320.75;;;2.41;100.00
78613;BME280;67933;51.060;3.638;2024-03-08T04:29:18;101321.75;;;2.35;100.00
78613;BME280;67933;51.060;3.638;2024-03-08T04:31:44;101324.44;;;2.30;100.00
78613;BME280;67933;51.060;3.638;2024-03-08T04:34:10;101321.84;;;2.29;100.00
78613;BME280;67933;51.060;3.638;2024-03-08T04:36:35;101315.75;;;2.28;100.00
78613;BME280;67933;51.060;3.638;2024-03-08T04:39:01;101321.72;;;2.37;100.00
78613;BME280;67933;51.060;3.638;2024-03-08T04:41:26;101316.41;;;2.41;100.00
78613;BME280;67933;51.060;3.638;2024-03-08T04:43:52;101312.84;;;2.45;100.00
78613;BME280;67933;51.060;3.638;2024-03-08T04:46:17;101306.88;;;2.39;100.00
78613;BME280;67933;51.060;3.638;2024-03-08T04:48:43;101310.47;;;2.31;100.00
78613;BME280;67933;51.060;3.638;2024-03-08T04:51:09;101306.91;;;2.34;100.00
78613;BME280;67933;51.060;3.638;2024-03-08T04:53:35;101304.28;;;2.36;100.00
78613;BME280;67933;51.060;3.638;2024-03-08T04:56:00;101305.16;;;2.35;100.00
78613;BME280;67933;51.060;3.638;2024-03-08T04:58:31;101302.63;;;2.31;100.00
78613;BME280;67933;51.060;3.638;2024-03-08T05:00:57;101293.94;;;2.28;100.00
78613;BME280;67933;51.060;3.638;2024-03-08T05:03:22;101293.84;;;2.32;100.00
78613;BME280;67933;51.060;3.638;2024-03-08T05:05:51;101289.47;;;2.33;100.00
78613;BME280;67933;51.060;3.638;2024-03-08T05:08:17;101295.66;;;2.29;100.00
78613;BME280;67933;51.060;3.638;2024-03-08T05:10:44;101300.13;;;2.24;100.00
78613;BME280;67933;51.060;3.638;2024-03-08T05:13:09;101287.97;;;2.18;100.00
78613;BME280;67933;51.060;3.638;2024-03-08T05:15:35;101291.44;;;2.20;100.00
78613;BME280;67933;51.060;3.638;2024-03-08T05:18:01;101291.44;;;2.22;100.00
78613;BME280;67933;51.060;3.638;2024-03-08T05:20:27;101293.94;;;2.28;100.00
78613;BME280;67933;51.060;3.638;2024-03-08T05:22:52;101287.81;;;2.29;100.00
78613;BME280;67933;51.060;3.638;2024-03-08T05:25:18;101287.03;;;2.24;100.00
78613;BME280;67933;51.060;3.638;2024-03-08T05:27:43;101293.22;;;2.18;100.00
78613;BME280;67933;51.060;3.638;2024-03-08T05:30:09;101288.06;;;2.14;100.00
78613;BME280;67933;51.060;3.638;2024-03-08T05:32:43;101294.28;;;2.07;100.00
78613;BME280;67933;51.060;3.638;2024-03-08T05:35:11;101289.94;;;2.07;100.00
78613;BME280;67933;51.060;3.638;2024-03-08T05:37:37;101295.97;;;2.11;100.00
78613;BME280;67933;51.060;3.638;2024-03-08T05:40:03;101287.25;;;2.10;100.00
78613;BME280;67933;51.060;3.638;2024-03-08T05:42:34;101285.59;;;2.05;100.00
78613;BME280;67933;51.060;3.638;2024-03-08T05:44:59;101279.50;;;2.04;100.00
78613;BME280;67933;51.060;3.638;2024-03-08T05:47:24;101272.47;;;2.08;100.00
78613;BME280;67933;51.060;3.638;2024-03-08T05:49:50;101274.16;;;2.10;100.00
78613;BME280;67933;51.060;3.638;2024-03-08T05:52:15;101279.44;;;2.09;100.00
78613;BME280;67933;51.060;3.638;2024-03-08T05:54:41;101283.81;;;2.08;100.00
78613;BME280;67933;51.060;3.638;2024-03-08T05:57:06;101281.22;;;2.05;100.00
78613;BME280;67933;51.060;3.638;2024-03-08T05:59:32;101270.75;;;2.05;100.00
78613;BME280;67933;51.060;3.638;2024-03-08T06:01:57;101268.16;;;2.04;100.00
78613;BME280;67933;51.060;3.638;2024-03-08T06:04:23;101276.91;;;2.03;100.00
78613;BME280;67933;51.060;3.638;2024-03-08T06:06:48;101257.72;;;2.02;100.00
78613;BME280;67933;51.060;3.638;2024-03-08T06:09:13;101261.28;;;1.98;100.00
78613;BME280;67933;51.060;3.638;2024-03-08T06:11:42;101252.59;;;1.94;100.00
78613;BME280;67933;51.060;3.638;2024-03-08T06:14:08;101256.13;;;1.93;100.00
78613;BME280;67933;51.060;3.638;2024-03-08T06:16:33;101259.66;;;1.89;100.00
78613;BME280;67933;51.060;3.638;2024-03-08T06:19:01;101256.13;;;1.93;100.00
78613;BME280;67933;51.060;3.638;2024-03-08T06:21:29;101249.22;;;1.89;100.00
78613;BME280;67933;51.060;3.638;2024-03-08T06:23:54;101256.06;;;1.97;100.00
78613;BME280;67933;51.060;3.638;2024-03-08T06:26:24;101243.84;;;1.97;100.00
78613;BME280;67933;51.060;3.638;2024-03-08T06:28:50;101244.63;;;2.02;100.00
78613;BME280;67933;51.060;3.638;2024-03-08T06:31:16;101235.09;;;2.00;100.00
78613;BME280;67933;51.060;3.638;2024-03-08T06:33:41;101235.03;;;2.03;100.00
78613;BME280;67933;51.060;3.638;2024-03-08T06:36:09;101233.31;;;2.02;100.00
78613;BME280;67933;51.060;3.638;2024-03-08T06:38:34;101233.25;;;2.05;100.00
78613;BME280;67933;51.060;3.638;2024-03-08T06:40:59;101228.81;;;2.10;100.00
78613;BME280;67933;51.060;3.638;2024-03-08T06:43:28;101222.66;;;2.14;100.00
78613;BME280;67933;51.060;3.638;2024-03-08T06:45:59;101227.00;;;2.13;100.00
78613;BME280;67933;51.060;3.638;2024-03-08T06:48:24;101206.94;;;2.14;100.00
78613;BME280;67933;51.060;3.638;2024-03-08T06:50:50;101210.41;;;2.16;100.00
78613;BME280;67933;51.060;3.638;2024-03-08T06:53:16;101213.91;;;2.15;100.00
78613;BME280;67933;51.060;3.638;2024-03-08T06:55:44;101208.56;;;2.21;100.00
78613;BME280;67933;51.060;3.638;2024-03-08T06:58:10;101198.81;;;2.29;100.00
78613;BME280;67933;51.060;3.638;2024-03-08T07:00:36;101201.44;;;2.29;100.00
78613;BME280;67933;51.060;3.638;2024-03-08T07:03:02;101196.97;;;2.34;100.00
78613;BME280;67933;51.060;3.638;2024-03-08T07:05:28;101189.84;;;2.42;100.00
78613;BME280;67933;51.060;3.638;2024-03-08T07:07:54;101195.81;;;2.50;100.00
78613;BME280;67933;51.060;3.638;2024-03-08T07:10:21;101200.03;;;2.57;100.00
78613;BME280;67933;51.060;3.638;2024-03-08T07:12:49;101192.03;;;2.65;100.00
78613;BME280;67933;51.060;3.638;2024-03-08T07:15:14;101197.06;;;2.76;100.00
78613;BME280;67933;51.060;3.638;2024-03-08T07:17:40;101195.06;;;2.87;100.00
78613;BME280;67933;51.060;3.638;2024-03-08T07:20:06;101198.50;;;3.32;100.00
78613;BME280;67933;51.060;3.638;2024-03-08T07:22:37;101182.25;;;3.88;100.00
78613;BME280;67933;51.060;3.638;2024-03-08T07:25:05;101199.25;;;4.42;100.00
78613;BME280;67933;51.060;3.638;2024-03-08T07:27:33;101185.03;;;4.81;100.00
78613;BME280;67933;51.060;3.638;2024-03-08T07:30:01;101194.13;;;5.00;100.00
78613;BME280;67933;51.060;3.638;2024-03-08T07:32:27;101185.97;;;5.10;100.00
78613;BME280;67933;51.060;3.638;2024-03-08T07:34:55;101187.94;;;5.31;100.00
78613;BME280;67933;51.060;3.638;2024-03-08T07:37:21;101183.41;;;5.64;100.00
78613;BME280;67933;51.060;3.638;2024-03-08T07:39:47;101192.13;;;5.94;100.00
78613;BME280;67933;51.060;3.638;2024-03-08T07:42:12;101177.84;;;6.01;100.00
78613;BME280;67933;51.060;3.638;2024-03-08T07:44:38;101180.56;;;6.24;100.00
78613;BME280;67933;51.060;3.638;2024-03-08T07:47:04;101172.03;;;6.42;100.00
78613;BME280;67933;51.060;3.638;2024-03-08T07:49:30;101179.44;;;6.31;100.00
78613;BME280;67933;51.060;3.638;2024-03-08T07:51:56;101175.22;;;6.50;100.00
78613;BME280;67933;51.060;3.638;2024-03-08T07:54:23;101169.06;;;6.75;100.00
78613;BME280;67933;51.060;3.638;2024-03-08T07:56:48;101154.69;;;6.83;100.00
78613;BME280;67933;51.060;3.638;2024-03-08T07:59:14;101164.03;;;7.15;100.00
78613;BME280;67933;51.060;3.638;2024-03-08T08:01:40;101162.25;;;7.38;100.00
78613;BME280;67933;51.060;3.638;2024-03-08T08:04:05;101157.72;;;7.19;100.00
78613;BME280;67933;51.060;3.638;2024-03-08T08:06:31;101147.91;;;7.45;100.00
78613;BME280;67933;51.060;3.638;2024-03-08T08:09:00;101148.75;;;7.89;100.00
78613;BME280;67933;51.060;3.638;2024-03-08T08:11:26;101143.38;;;7.90;96.41
78613;BME280;67933;51.060;3.638;2024-03-08T08:13:54;101146.53;;;7.78;97.18
78613;BME280;67933;51.060;3.638;2024-03-08T08:16:20;101129.25;;;7.91;99.31
78613;BME280;67933;51.060;3.638;2024-03-08T08:18:45;101131.94;;;7.48;96.56
78613;BME280;67933;51.060;3.638;2024-03-08T08:21:11;101127.56;;;8.10;94.93
78613;BME280;67933;51.060;3.638;2024-03-08T08:23:36;101119.09;;;8.63;95.76
78613;BME280;67933;51.060;3.638;2024-03-08T08:26:03;101123.34;;;9.05;88.44
78613;BME280;67933;51.060;3.638;2024-03-08T08:28:28;101119.13;;;8.82;89.91
78613;BME280;67933;51.060;3.638;2024-03-08T08:30:54;101112.72;;;9.23;91.82
78613;BME280;67933;51.060;3.638;2024-03-08T08:33:20;101105.22;;;9.33;86.96
78613;BME280;67933;51.060;3.638;2024-03-08T08:35:45;101103.03;;;9.60;65.24
78613;BME280;67933;51.060;3.638;2024-03-08T08:38:13;101096.06;;;9.92;63.40
78613;BME280;67933;51.060;3.638;2024-03-08T08:40:38;101093.81;;;9.50;65.87
78613;BME280;67933;51.060;3.638;2024-03-08T08:43:04;101089.06;;;9.56;62.78
78613;BME280;67933;51.060;3.638;2024-03-08T08:45:30;101084.44;;;10.46;61.33
78613;BME280;67933;51.060;3.638;2024-03-08T08:47:56;101072.75;;;10.33;62.02
78613;BME280;67933;51.060;3.638;2024-03-08T08:50:22;101072.91;;;10.63;60.19
78613;BME280;67933;51.060;3.638;2024-03-08T08:52:52;101071.59;;;10.87;58.30
78613;BME280;67933;51.060;3.638;2024-03-08T08:55:18;101077.13;;;10.67;58.36
78613;BME280;67933;51.060;3.638;2024-03-08T08:57:53;101068.50;;;10.13;59.51
78613;BME280;67933;51.060;3.638;2024-03-08T09:00:19;101062.41;;;10.93;60.97
78613;BME280;67933;51.060;3.638;2024-03-08T09:02:46;101061.47;;;11.25;57.78
78613;BME280;67933;51.060;3.638;2024-03-08T09:05:12;101066.22;;;11.50;57.05
78613;BME280;67933;51.060;3.638;2024-03-08T09:07:37;101055.94;;;11.60;56.73
78613;BME280;67933;51.060;3.638;2024-03-08T09:10:03;101057.31;;;12.25;57.67
78613;BME280;67933;51.060;3.638;2024-03-08T09:12:29;101037.75;;;11.22;56.41
78613;BME280;67933;51.060;3.638;2024-03-08T09:14:56;101036.63;;;12.30;56.74
78613;BME280;67933;51.060;3.638;2024-03-08T09:17:22;101033.66;;;12.63;53.58
78613;BME280;67933;51.060;3.638;2024-03-08T09:19:47;101030.38;;;11.57;54.30
78613;BME280;67933;51.060;3.638;2024-03-08T09:22:13;101033.88;;;12.46;55.34
78613;BME280;67933;51.060;3.638;2024-03-08T09:24:38;101034.66;;;12.89;55.02
78613;BME280;67933;51.060;3.638;2024-03-08T09:27:04;101027.16;;;13.49;51.87
78613;BME280;67933;51.060;3.638;2024-03-08T09:29:30;101020.44;;;14.21;51.75
78613;BME280;67933;51.060;3.638;2024-03-08T09:31:55;101019.13;;;13.76;50.50
78613;BME280;67933;51.060;3.638;2024-03-08T09:34:21;101015.53;;;13.37;50.68
78613;BME280;67933;51.060;3.638;2024-03-08T09:36:46;101019.44;;;13.32;52.92
78613;BME280;67933;51.060;3.638;2024-03-08T09:39:12;101015.94;;;12.90;49.68
78613;BME280;67933;51.060;3.638;2024-03-08T09:41:43;101006.88;;;13.07;51.21
78613;BME280;67933;51.060;3.638;2024-03-08T09:44:09;101003.94;;;12.42;51.62
78613;BME280;67933;51.060;3.638;2024-03-08T09:46:34;100999.16;;;13.02;52.59
78613;BME280;67933;51.060;3.638;2024-03-08T09:49:01;100988.16;;;12.39;52.57
78613;BME280;67933;51.060;3.638;2024-03-08T09:51:31;100973.59;;;12.59;51.61
78613;BME280;67933;51.060;3.638;2024-03-08T09:53:58;100976.16;;;14.06;49.56
78613;BME280;67933;51.060;3.638;2024-03-08T09:56:24;100979.13;;;13.76;49.44
78613;BME280;67933;51.060;3.638;2024-03-08T09:58:50;100963.75;;;13.79;47.80
78613;BME280;67933;51.060;3.638;2024-03-08T10:01:31;100960.03;;;13.17;49.07
78613;BME280;67933;51.060;3.638;2024-03-08T10:03:57;100962.97;;;12.59;48.92
78613;BME280;67933;51.060;3.638;2024-03-08T10:06:23;100966.38;;;12.88;49.83
78613;BME280;67933;51.060;3.638;2024-03-08T10:08:50;100957.22;;;12.65;50.15
78613;BME280;67933;51.060;3.638;2024-03-08T10:11:19;100956.47;;;12.63;49.11
78613;BME280;67933;51.060;3.638;2024-03-08T10:13:45;100949.28;;;12.92;51.49
78613;BME280;67933;51.060;3.638;2024-03-08T10:16:12;100952.38;;;12.71;50.49
78613;BME280;67933;51.060;3.638;2024-03-08T10:18:38;100938.09;;;12.72;51.19
78613;BME280;67933;51.060;3.638;2024-03-08T10:21:05;100948.03;;;13.10;50.23
78613;BME280;67933;51.060;3.638;2024-03-08T10:23:32;100937.06;;;14.17;46.93
78613;BME280;67933;51.060;3.638;2024-03-08T10:26:09;100926.88;;;13.73;47.28
78613;BME280;67933;51.060;3.638;2024-03-08T10:28:35;100923.03;;;13.90;47.32
78613;BME280;67933;51.060;3.638;2024-03-08T10:31:00;100926.38;;;13.16;49.05
78613;BME280;67933;51.060;3.638;2024-03-08T10:33:26;100912.56;;;13.87;48.64
78613;BME280;67933;51.060;3.638;2024-03-08T10:35:52;100907.69;;;14.43;45.29
78613;BME280;67933;51.060;3.638;2024-03-08T10:38:19;100901.78;;;13.88;47.33
78613;BME280;67933;51.060;3.638;2024-03-08T10:40:48;100888.16;;;13.93;47.13
78613;BME280;67933;51.060;3.638;2024-03-08T10:43:24;100884.31;;;14.94;45.80
78613;BME280;67933;51.060;3.638;2024-03-08T10:46:07;100875.09;;;15.33;45.39
78613;BME280;67933;51.060;3.638;2024-03-08T10:48:45;100866.13;;;16.34;43.38
78613;BME280;67933;51.060;3.638;2024-03-08T10:51:14;100865.16;;;16.35;43.54
78613;BME280;67933;51.060;3.638;2024-03-08T10:53:41;100875.63;;;16.27;41.47
78613;BME280;67933;51.060;3.638;2024-03-08T10:56:07;100873.81;;;16.39;42.33
78613;BME280;67933;51.060;3.638;2024-03-08T10:58:35;100873.66;;;15.51;42.59
78613;BME280;67933;51.060;3.638;2024-03-08T11:01:02;100874.50;;;14.34;44.58
78613;BME280;67933;51.060;3.638;2024-03-08T11:06:07;100866.81;;;15.36;45.42
78613;BME280;67933;51.060;3.638;2024-03-08T11:08:35;100868.59;;;14.78;44.21
78613;BME280;67933;51.060;3.638;2024-03-08T11:11:01;100862.03;;;15.74;42.33
78613;BME280;67933;51.060;3.638;2024-03-08T11:13:37;100864.00;;;15.61;44.18
78613;BME280;67933;51.060;3.638;2024-03-08T11:18:55;100855.16;;;14.91;43.28
78613;BME280;67933;51.060;3.638;2024-03-08T11:21:24;100844.50;;;16.04;43.48
78613;BME280;67933;51.060;3.638;2024-03-08T11:24:01;100849.81;;;16.48;40.87
78613;BME280;67933;51.060;3.638;2024-03-08T11:26:29;100835.06;;;17.69;41.13
78613;BME280;67933;51.060;3.638;2024-03-08T11:32:23;100827.13;;;17.16;40.02
78613;BME280;67933;51.060;3.638;2024-03-08T11:34:53;100840.78;;;16.92;39.24
78613;BME280;67933;51.060;3.638;2024-03-08T11:37:20;100839.84;;;15.28;41.12
78613;BME280;67933;51.060;3.638;2024-03-08T11:39:53;100830.38;;;16.24;39.92
78613;BME280;67933;51.060;3.638;2024-03-08T11:42:24;100812.00;;;17.15;40.44
78613;BME280;67933;51.060;3.638;2024-03-08T11:44:52;100802.88;;;17.69;40.64
78613;BME280;67933;51.060;3.638;2024-03-08T11:47:17;100800.66;;;17.84;37.55
78613;BME280;67933;51.060;3.638;2024-03-08T11:49:43;100792.28;;;17.16;38.34
78613;BME280;67933;51.060;3.638;2024-03-08T11:52:14;100785.63;;;17.62;39.94
78613;BME280;67933;51.060;3.638;2024-03-08T11:54:41;100784.50;;;17.64;39.17
78613;BME280;67933;51.060;3.638;2024-03-08T11:57:07;100781.69;;;18.16;38.49
78613;BME280;67933;51.060;3.638;2024-03-08T11:59:34;100773.22;;;18.11;37.92
78613;BME280;67933;51.060;3.638;2024-03-08T12:02:02;100780.78;;;17.35;36.78
78613;BME280;67933;51.060;3.638;2024-03-08T12:04:29;100776.03;;;18.09;39.84
78613;BME280;67933;51.060;3.638;2024-03-08T12:06:54;100773.63;;;18.16;37.80
78613;BME280;67933;51.060;3.638;2024-03-08T12:09:20;100778.09;;;17.35;39.92
78613;BME280;67933;51.060;3.638;2024-03-08T12:11:50;100771.09;;;17.74;38.08
78613;BME280;67933;51.060;3.638;2024-03-08T12:14:16;100771.03;;;17.55;38.97
78613;BME280;67933;51.060;3.638;2024-03-08T12:16:42;100759.06;;;18.08;38.45
78613;BME280;67933;51.060;3.638;2024-03-08T12:19:08;100756.25;;;18.29;38.28
78613;BME280;67933;51.060;3.638;2024-03-08T12:21:35;100753.44;;;18.31;39.34
78613;BME280;67933;51.060;3.638;2024-03-08T12:24:04;100758.03;;;16.99;38.31
78613;BME280;67933;51.060;3.638;2024-03-08T12:26:34;100745.44;;;17.20;37.57
78613;BME280;67933;51.060;3.638;2024-03-08T12:29:27;100737.91;;;16.84;38.25
78613;BME280;67933;51.060;3.638;2024-03-08T12:31:58;100724.22;;;16.66;40.04
78613;BME280;67933;51.060;3.638;2024-03-08T12:34:26;100742.41;;;16.51;40.16
78613;BME280;67933;51.060;3.638;2024-03-08T12:36:53;100717.72;;;17.71;38.93
78613;BME280;67933;51.060;3.638;2024-03-08T12:39:21;100720.75;;;16.54;39.34
78613;BME280;67933;51.060;3.638;2024-03-08T12:41:56;100723.91;;;17.62;39.50
78613;BME280;67933;51.060;3.638;2024-03-08T12:44:25;100704.31;;;17.71;37.28
78613;BME280;67933;51.060;3.638;2024-03-08T12:46:51;100709.03;;;18.07;38.66
78613;BME280;67933;51.060;3.638;2024-03-08T12:49:16;100695.88;;;18.43;38.78
78613;BME280;67933;51.060;3.638;2024-03-08T12:51:48;100700.00;;;18.37;35.85
78613;BME280;67933;51.060;3.638;2024-03-08T12:54:13;100700.75;;;19.05;37.20
78613;BME280;67933;51.060;3.638;2024-03-08T12:56:39;100696.28;;;17.71;37.72